sensor_id;sensor_type;location;lat;lon;timestamp;P1;durP1;ratioP1;P2;durP2;ratioP2
7841;SDS011;3966;51.052;13.820;2022-09-14T00:01:07;9.20;;;3.88;;
7841;SDS011;3966;51.052;13.820;2022-09-14T00:03:34;4.78;;;3.67;;
7841;SDS011;3966;51.052;13.820;2022-09-14T00:06:06;9.05;;;3.88;;
7841;SDS011;3966;51.052;13.820;2022-09-14T00:08:35;6.15;;;3.50;;
7841;SDS011;3966;51.052;13.820;2022-09-14T00:11:04;3.72;;;3.40;;
7841;SDS011;3966;51.052;13.820;2022-09-14T00:13:32;4.05;;;3.65;;
7841;SDS011;3966;51.052;13.820;2022-09-14T00:16:02;7.03;;;3.90;;
7841;SDS011;3966;51.052;13.820;2022-09-14T00:18:29;4.18;;;3.58;;
7841;SDS011;3966;51.052;13.820;2022-09-14T00:21:05;4.00;;;3.65;;
7841;SDS011;3966;51.052;13.820;2022-09-14T00:23:35;3.95;;;3.55;;
7841;SDS011;3966;51.052;13.820;2022-09-14T00:26:05;4.18;;;3.72;;
7841;SDS011;3966;51.052;13.820;2022-09-14T00:28:37;5.57;;;4.18;;
7841;SDS011;3966;51.052;13.820;2022-09-14T00:31:04;6.90;;;4.10;;
7841;SDS011;3966;51.052;13.820;2022-09-14T00:33:30;4.53;;;4.00;;
7841;SDS011;3966;51.052;13.820;2022-09-14T00:36:02;8.65;;;4.05;;
7841;SDS011;3966;51.052;13.820;2022-09-14T00:38:38;6.70;;;3.92;;
7841;SDS011;3966;51.052;13.820;2022-09-14T00:41:05;5.80;;;3.95;;
7841;SDS011;3966;51.052;13.820;2022-09-14T00:43:49;7.43;;;4.22;;
7841;SDS011;3966;51.052;13.820;2022-09-14T00:46:22;4.78;;;3.90;;
7841;SDS011;3966;51.052;13.820;2022-09-14T00:48:48;7.22;;;3.97;;
7841;SDS011;3966;51.052;13.820;2022-09-14T00:51:14;4.50;;;3.92;;
7841;SDS011;3966;51.052;13.820;2022-09-14T00:53:42;7.38;;;3.83;;
7841;SDS011;3966;51.052;13.820;2022-09-14T00:56:08;7.57;;;4.07;;
7841;SDS011;3966;51.052;13.820;2022-09-14T00:58:33;7.22;;;4.53;;
7841;SDS011;3966;51.052;13.820;2022-09-14T01:00:59;4.80;;;3.95;;
7841;SDS011;3966;51.052;13.820;2022-09-14T01:03:26;6.85;;;4.20;;
7841;SDS011;3966;51.052;13.820;2022-09-14T01:05:59;5.45;;;4.10;;
7841;SDS011;3966;51.052;13.820;2022-09-14T01:08:36;10.68;;;4.38;;
7841;SDS011;3966;51.052;13.820;2022-09-14T01:11:27;7.45;;;4.57;;
7841;SDS011;3966;51.052;13.820;2022-09-14T01:14:23;6.68;;;3.97;;
7841;SDS011;3966;51.052;13.820;2022-09-14T01:17:03;9.25;;;4.25;;
7841;SDS011;3966;51.052;13.820;2022-09-14T01:19:54;5.75;;;3.80;;
7841;SDS011;3966;51.052;13.820;2022-09-14T01:22:34;8.35;;;3.83;;
7841;SDS011;3966;51.052;13.820;2022-09-14T01:25:14;5.43;;;3.65;;
7841;SDS011;3966;51.052;13.820;2022-09-14T01:28:09;4.40;;;3.67;;
7841;SDS011;3966;51.052;13.820;2022-09-14T01:33:26;5.97;;;4.00;;
7841;SDS011;3966;51.052;13.820;2022-09-14T01:35:59;4.43;;;3.67;;
7841;SDS011;3966;51.052;13.820;2022-09-14T01:38:50;4.38;;;3.83;;
7841;SDS011;3966;51.052;13.820;2022-09-14T01:41:18;4.43;;;3.85;;
7841;SDS011;3966;51.052;13.820;2022-09-14T01:43:49;6.85;;;4.00;;
7841;SDS011;3966;51.052;13.820;2022-09-14T01:46:23;8.48;;;4.72;;
7841;SDS011;3966;51.052;13.820;2022-09-14T01:49:23;4.50;;;3.92;;
7841;SDS011;3966;51.052;13.820;2022-09-14T01:54:42;5.32;;;4.00;;
7841;SDS011;3966;51.052;13.820;2022-09-14T01:57:22;8.85;;;3.92;;
7841;SDS011;3966;51.052;13.820;2022-09-14T02:00:01;9.80;;;4.40;;
7841;SDS011;3966;51.052;13.820;2022-09-14T02:02:36;4.63;;;4.03;;
7841;SDS011;3966;51.052;13.820;2022-09-14T02:05:09;5.95;;;4.45;;
7841;SDS011;3966;51.052;13.820;2022-09-14T02:07:52;4.32;;;3.92;;
7841;SDS011;3966;51.052;13.820;2022-09-14T02:10:18;5.65;;;3.88;;
7841;SDS011;3966;51.052;13.820;2022-09-14T02:12:43;6.60;;;4.35;;
7841;SDS011;3966;51.052;13.820;2022-09-14T02:15:10;6.15;;;3.88;;
7841;SDS011;3966;51.052;13.820;2022-09-14T02:17:38;4.88;;;3.95;;
7841;SDS011;3966;51.052;13.820;2022-09-14T02:20:05;7.68;;;4.10;;
7841;SDS011;3966;51.052;13.820;2022-09-14T02:22:34;6.45;;;4.05;;
7841;SDS011;3966;51.052;13.820;2022-09-14T02:25:00;10.48;;;4.70;;
7841;SDS011;3966;51.052;13.820;2022-09-14T02:27:26;7.35;;;4.00;;
7841;SDS011;3966;51.052;13.820;2022-09-14T02:29:52;7.07;;;4.28;;
7841;SDS011;3966;51.052;13.820;2022-09-14T02:32:27;8.00;;;4.13;;
7841;SDS011;3966;51.052;13.820;2022-09-14T02:35:26;7.28;;;4.03;;
7841;SDS011;3966;51.052;13.820;2022-09-14T02:38:02;5.03;;;3.88;;
7841;SDS011;3966;51.052;13.820;2022-09-14T02:40:49;5.07;;;4.57;;
7841;SDS011;3966;51.052;13.820;2022-09-14T02:43:25;6.93;;;4.20;;
7841;SDS011;3966;51.052;13.820;2022-09-14T02:56:36;6.18;;;4.35;;
7841;SDS011;3966;51.052;13.820;2022-09-14T02:59:02;5.20;;;4.70;;
7841;SDS011;3966;51.052;13.820;2022-09-14T03:01:28;5.32;;;4.68;;
7841;SDS011;3966;51.052;13.820;2022-09-14T03:03:54;8.93;;;4.07;;
7841;SDS011;3966;51.052;13.820;2022-09-14T03:06:20;5.68;;;4.50;;
7841;SDS011;3966;51.052;13.820;2022-09-14T03:08:45;9.45;;;4.35;;
7841;SDS011;3966;51.052;13.820;2022-09-14T03:11:11;4.80;;;4.18;;
7841;SDS011;3966;51.052;13.820;2022-09-14T03:13:37;7.43;;;4.85;;
7841;SDS011;3966;51.052;13.820;2022-09-14T03:16:06;6.72;;;4.43;;
7841;SDS011;3966;51.052;13.820;2022-09-14T03:18:34;5.93;;;4.80;;
7841;SDS011;3966;51.052;13.820;2022-09-14T03:21:02;5.68;;;4.38;;
7841;SDS011;3966;51.052;13.820;2022-09-14T03:23:36;5.55;;;4.95;;
7841;SDS011;3966;51.052;13.820;2022-09-14T03:26:05;4.38;;;3.88;;
7841;SDS011;3966;51.052;13.820;2022-09-14T03:28:31;6.45;;;4.70;;
7841;SDS011;3966;51.052;13.820;2022-09-14T03:30:59;4.80;;;4.30;;
7841;SDS011;3966;51.052;13.820;2022-09-14T03:33:25;5.35;;;4.50;;
7841;SDS011;3966;51.052;13.820;2022-09-14T03:35:51;5.45;;;3.92;;
7841;SDS011;3966;51.052;13.820;2022-09-14T03:38:16;10.60;;;4.88;;
7841;SDS011;3966;51.052;13.820;2022-09-14T03:40:43;5.85;;;4.10;;
7841;SDS011;3966;51.052;13.820;2022-09-14T03:43:08;9.05;;;3.83;;
7841;SDS011;3966;51.052;13.820;2022-09-14T03:45:36;8.63;;;4.25;;
7841;SDS011;3966;51.052;13.820;2022-09-14T03:48:01;7.75;;;4.38;;
7841;SDS011;3966;51.052;13.820;2022-09-14T03:50:27;7.25;;;4.30;;
7841;SDS011;3966;51.052;13.820;2022-09-14T03:52:53;6.18;;;3.97;;
7841;SDS011;3966;51.052;13.820;2022-09-14T03:55:18;6.63;;;4.25;;
7841;SDS011;3966;51.052;13.820;2022-09-14T03:57:43;5.35;;;4.03;;
7841;SDS011;3966;51.052;13.820;2022-09-14T04:00:09;8.63;;;4.35;;
7841;SDS011;3966;51.052;13.820;2022-09-14T04:02:35;11.20;;;4.50;;
7841;SDS011;3966;51.052;13.820;2022-09-14T04:05:01;5.50;;;4.03;;
7841;SDS011;3966;51.052;13.820;2022-09-14T04:07:26;4.45;;;4.00;;
7841;SDS011;3966;51.052;13.820;2022-09-14T04:09:52;5.30;;;4.10;;
7841;SDS011;3966;51.052;13.820;2022-09-14T04:12:18;5.22;;;3.80;;
7841;SDS011;3966;51.052;13.820;2022-09-14T04:14:43;6.22;;;3.90;;
7841;SDS011;3966;51.052;13.820;2022-09-14T04:17:09;4.63;;;3.85;;
7841;SDS011;3966;51.052;13.820;2022-09-14T04:19:34;8.23;;;4.03;;
7841;SDS011;3966;51.052;13.820;2022-09-14T04:22:03;7.18;;;4.13;;
7841;SDS011;3966;51.052;13.820;2022-09-14T04:24:29;8.50;;;4.07;;
7841;SDS011;3966;51.052;13.820;2022-09-14T04:26:54;8.45;;;4.35;;
7841;SDS011;3966;51.052;13.820;2022-09-14T04:29:20;4.53;;;3.78;;
7841;SDS011;3966;51.052;13.820;2022-09-14T04:31:45;7.57;;;4.20;;
7841;SDS011;3966;51.052;13.820;2022-09-14T04:34:11;8.02;;;4.10;;
7841;SDS011;3966;51.052;13.820;2022-09-14T04:36:40;5.72;;;4.07;;
7841;SDS011;3966;51.052;13.820;2022-09-14T04:39:06;8.30;;;4.38;;
7841;SDS011;3966;51.052;13.820;2022-09-14T04:41:31;7.13;;;4.35;;
7841;SDS011;3966;51.052;13.820;2022-09-14T04:43:57;4.25;;;3.83;;
7841;SDS011;3966;51.052;13.820;2022-09-14T04:46:27;4.60;;;3.95;;
7841;SDS011;3966;51.052;13.820;2022-09-14T04:48:55;4.60;;;4.10;;
7841;SDS011;3966;51.052;13.820;2022-09-14T04:51:22;5.50;;;3.95;;
7841;SDS011;3966;51.052;13.820;2022-09-14T04:53:50;4.50;;;3.92;;
7841;SDS011;3966;51.052;13.820;2022-09-14T04:56:17;11.85;;;4.47;;
7841;SDS011;3966;51.052;13.820;2022-09-14T04:58:45;5.40;;;4.35;;
7841;SDS011;3966;51.052;13.820;2022-09-14T05:01:19;5.65;;;4.00;;
7841;SDS011;3966;51.052;13.820;2022-09-14T05:03:46;7.57;;;4.53;;
7841;SDS011;3966;51.052;13.820;2022-09-14T05:06:16;9.43;;;5.00;;
7841;SDS011;3966;51.052;13.820;2022-09-14T05:08:44;9.05;;;4.40;;
7841;SDS011;3966;51.052;13.820;2022-09-14T05:11:11;11.10;;;5.28;;
7841;SDS011;3966;51.052;13.820;2022-09-14T05:13:40;5.50;;;4.75;;
7841;SDS011;3966;51.052;13.820;2022-09-14T05:16:06;8.80;;;4.88;;
7841;SDS011;3966;51.052;13.820;2022-09-14T05:18:33;5.97;;;4.55;;
7841;SDS011;3966;51.052;13.820;2022-09-14T05:21:02;6.90;;;4.90;;
7841;SDS011;3966;51.052;13.820;2022-09-14T05:23:29;5.05;;;4.57;;
7841;SDS011;3966;51.052;13.820;2022-09-14T05:25:55;6.68;;;4.38;;
7841;SDS011;3966;51.052;13.820;2022-09-14T05:28:20;7.57;;;4.72;;
7841;SDS011;3966;51.052;13.820;2022-09-14T05:30:46;6.93;;;4.55;;
7841;SDS011;3966;51.052;13.820;2022-09-14T05:33:11;5.72;;;5.10;;
7841;SDS011;3966;51.052;13.820;2022-09-14T05:35:37;6.85;;;5.00;;
7841;SDS011;3966;51.052;13.820;2022-09-14T05:38:02;10.20;;;5.32;;
7841;SDS011;3966;51.052;13.820;2022-09-14T05:40:28;7.72;;;4.70;;
7841;SDS011;3966;51.052;13.820;2022-09-14T05:42:53;9.27;;;5.20;;
7841;SDS011;3966;51.052;13.820;2022-09-14T05:45:19;6.93;;;5.00;;
7841;SDS011;3966;51.052;13.820;2022-09-14T05:47:44;6.13;;;5.22;;
7841;SDS011;3966;51.052;13.820;2022-09-14T05:50:10;7.40;;;4.68;;
7841;SDS011;3966;51.052;13.820;2022-09-14T05:52:35;8.15;;;4.90;;
7841;SDS011;3966;51.052;13.820;2022-09-14T05:55:01;7.28;;;5.60;;
7841;SDS011;3966;51.052;13.820;2022-09-14T05:57:26;8.77;;;5.20;;
7841;SDS011;3966;51.052;13.820;2022-09-14T05:59:52;8.13;;;4.40;;
7841;SDS011;3966;51.052;13.820;2022-09-14T06:02:17;5.35;;;4.60;;
7841;SDS011;3966;51.052;13.820;2022-09-14T06:04:43;5.57;;;4.57;;
7841;SDS011;3966;51.052;13.820;2022-09-14T06:07:08;4.28;;;3.83;;
7841;SDS011;3966;51.052;13.820;2022-09-14T06:09:33;12.15;;;5.00;;
7841;SDS011;3966;51.052;13.820;2022-09-14T06:11:59;6.40;;;5.13;;
7841;SDS011;3966;51.052;13.820;2022-09-14T06:14:24;9.10;;;4.72;;
7841;SDS011;3966;51.052;13.820;2022-09-14T06:16:50;7.63;;;5.10;;
7841;SDS011;3966;51.052;13.820;2022-09-14T06:19:15;7.20;;;5.15;;
7841;SDS011;3966;51.052;13.820;2022-09-14T06:21:41;7.35;;;4.72;;
7841;SDS011;3966;51.052;13.820;2022-09-14T06:24:08;7.10;;;5.40;;
7841;SDS011;3966;51.052;13.820;2022-09-14T06:26:34;7.32;;;5.40;;
7841;SDS011;3966;51.052;13.820;2022-09-14T06:29:00;7.63;;;5.55;;
7841;SDS011;3966;51.052;13.820;2022-09-14T06:31:25;8.70;;;4.47;;
7841;SDS011;3966;51.052;13.820;2022-09-14T06:33:51;7.53;;;5.05;;
7841;SDS011;3966;51.052;13.820;2022-09-14T06:36:19;6.35;;;5.15;;
7841;SDS011;3966;51.052;13.820;2022-09-14T06:38:46;8.80;;;5.05;;
7841;SDS011;3966;51.052;13.820;2022-09-14T06:41:14;7.68;;;5.35;;
7841;SDS011;3966;51.052;13.820;2022-09-14T06:43:44;8.52;;;5.63;;
7841;SDS011;3966;51.052;13.820;2022-09-14T06:46:20;6.90;;;5.35;;
7841;SDS011;3966;51.052;13.820;2022-09-14T06:48:55;6.78;;;4.95;;
7841;SDS011;3966;51.052;13.820;2022-09-14T06:53:51;10.20;;;5.53;;
7841;SDS011;3966;51.052;13.820;2022-09-14T06:56:18;11.80;;;6.03;;
7841;SDS011;3966;51.052;13.820;2022-09-14T06:58:43;9.73;;;6.18;;
7841;SDS011;3966;51.052;13.820;2022-09-14T07:01:10;9.45;;;5.63;;
7841;SDS011;3966;51.052;13.820;2022-09-14T07:03:40;6.68;;;5.05;;
7841;SDS011;3966;51.052;13.820;2022-09-14T07:06:14;6.55;;;5.30;;
7841;SDS011;3966;51.052;13.820;2022-09-14T07:08:45;8.30;;;5.65;;
7841;SDS011;3966;51.052;13.820;2022-09-14T07:11:12;7.60;;;5.40;;
7841;SDS011;3966;51.052;13.820;2022-09-14T07:13:39;6.55;;;4.85;;
7841;SDS011;3966;51.052;13.820;2022-09-14T07:16:05;6.82;;;5.07;;
7841;SDS011;3966;51.052;13.820;2022-09-14T07:18:31;10.98;;;5.07;;
7841;SDS011;3966;51.052;13.820;2022-09-14T07:21:04;10.15;;;5.10;;
7841;SDS011;3966;51.052;13.820;2022-09-14T07:23:39;6.15;;;5.13;;
7841;SDS011;3966;51.052;13.820;2022-09-14T07:26:06;10.10;;;4.93;;
7841;SDS011;3966;51.052;13.820;2022-09-14T07:28:35;6.57;;;4.35;;
7841;SDS011;3966;51.052;13.820;2022-09-14T07:31:01;7.05;;;5.10;;
7841;SDS011;3966;51.052;13.820;2022-09-14T07:33:28;11.65;;;5.60;;
7841;SDS011;3966;51.052;13.820;2022-09-14T07:35:54;6.55;;;4.63;;
7841;SDS011;3966;51.052;13.820;2022-09-14T07:38:27;7.40;;;5.72;;
7841;SDS011;3966;51.052;13.820;2022-09-14T07:40:56;12.55;;;5.85;;
7841;SDS011;3966;51.052;13.820;2022-09-14T07:43:22;11.43;;;6.30;;
7841;SDS011;3966;51.052;13.820;2022-09-14T07:45:47;7.80;;;5.78;;
7841;SDS011;3966;51.052;13.820;2022-09-14T07:48:12;8.98;;;5.75;;
7841;SDS011;3966;51.052;13.820;2022-09-14T07:50:38;10.52;;;6.30;;
7841;SDS011;3966;51.052;13.820;2022-09-14T07:53:03;9.27;;;6.25;;
7841;SDS011;3966;51.052;13.820;2022-09-14T07:55:29;10.43;;;6.80;;
7841;SDS011;3966;51.052;13.820;2022-09-14T07:57:54;10.30;;;7.10;;
7841;SDS011;3966;51.052;13.820;2022-09-14T08:00:20;11.05;;;6.05;;
7841;SDS011;3966;51.052;13.820;2022-09-14T08:02:50;14.98;;;6.63;;
7841;SDS011;3966;51.052;13.820;2022-09-14T08:05:16;9.45;;;7.15;;
7841;SDS011;3966;51.052;13.820;2022-09-14T08:07:43;10.88;;;7.00;;
7841;SDS011;3966;51.052;13.820;2022-09-14T08:10:09;13.52;;;7.00;;
7841;SDS011;3966;51.052;13.820;2022-09-14T08:12:34;8.82;;;6.75;;
7841;SDS011;3966;51.052;13.820;2022-09-14T08:15:00;11.43;;;7.68;;
7841;SDS011;3966;51.052;13.820;2022-09-14T08:17:25;15.05;;;7.88;;
7841;SDS011;3966;51.052;13.820;2022-09-14T08:19:51;14.98;;;7.53;;
7841;SDS011;3966;51.052;13.820;2022-09-14T08:22:16;11.57;;;7.30;;
7841;SDS011;3966;51.052;13.820;2022-09-14T08:24:42;11.80;;;7.38;;
7841;SDS011;3966;51.052;13.820;2022-09-14T08:27:08;14.38;;;7.72;;
7841;SDS011;3966;51.052;13.820;2022-09-14T08:29:34;11.57;;;8.02;;
7841;SDS011;3966;51.052;13.820;2022-09-14T08:32:00;9.73;;;7.40;;
7841;SDS011;3966;51.052;13.820;2022-09-14T08:34:25;11.40;;;7.40;;
7841;SDS011;3966;51.052;13.820;2022-09-14T08:36:51;12.98;;;7.50;;
7841;SDS011;3966;51.052;13.820;2022-09-14T08:39:17;15.75;;;8.07;;
7841;SDS011;3966;51.052;13.820;2022-09-14T08:44:14;12.00;;;7.10;;
7841;SDS011;3966;51.052;13.820;2022-09-14T08:47:03;11.30;;;7.53;;
7841;SDS011;3966;51.052;13.820;2022-09-14T08:49:42;11.10;;;7.72;;
7841;SDS011;3966;51.052;13.820;2022-09-14T08:52:31;11.77;;;8.13;;
7841;SDS011;3966;51.052;13.820;2022-09-14T08:54:55;13.23;;;8.52;;
7841;SDS011;3966;51.052;13.820;2022-09-14T08:57:28;16.48;;;8.45;;
7841;SDS011;3966;51.052;13.820;2022-09-14T09:00:17;13.23;;;8.25;;
7841;SDS011;3966;51.052;13.820;2022-09-14T09:02:52;12.38;;;8.05;;
7841;SDS011;3966;51.052;13.820;2022-09-14T09:06:07;17.30;;;9.13;;
7841;SDS011;3966;51.052;13.820;2022-09-14T09:08:38;13.52;;;8.40;;
7841;SDS011;3966;51.052;13.820;2022-09-14T09:11:21;16.13;;;8.80;;
7841;SDS011;3966;51.052;13.820;2022-09-14T09:13:50;12.52;;;7.90;;
7841;SDS011;3966;51.052;13.820;2022-09-14T09:16:18;17.02;;;8.40;;
7841;SDS011;3966;51.052;13.820;2022-09-14T09:18:49;12.43;;;8.52;;
7841;SDS011;3966;51.052;13.820;2022-09-14T09:21:18;13.80;;;8.02;;
7841;SDS011;3966;51.052;13.820;2022-09-14T09:23:50;14.98;;;8.48;;
7841;SDS011;3966;51.052;13.820;2022-09-14T09:26:29;12.60;;;8.05;;
7841;SDS011;3966;51.052;13.820;2022-09-14T09:28:57;22.73;;;9.13;;
7841;SDS011;3966;51.052;13.820;2022-09-14T09:31:32;14.23;;;9.10;;
7841;SDS011;3966;51.052;13.820;2022-09-14T09:34:12;15.52;;;9.20;;
7841;SDS011;3966;51.052;13.820;2022-09-14T09:36:39;13.82;;;9.13;;
7841;SDS011;3966;51.052;13.820;2022-09-14T09:39:08;20.48;;;10.75;;
7841;SDS011;3966;51.052;13.820;2022-09-14T09:41:38;15.60;;;9.60;;
7841;SDS011;3966;51.052;13.820;2022-09-14T09:44:09;17.60;;;11.15;;
7841;SDS011;3966;51.052;13.820;2022-09-14T09:46:47;21.55;;;11.40;;
7841;SDS011;3966;51.052;13.820;2022-09-14T09:49:32;18.60;;;11.15;;
7841;SDS011;3966;51.052;13.820;2022-09-14T09:52:06;17.30;;;10.00;;
7841;SDS011;3966;51.052;13.820;2022-09-14T09:54:38;16.10;;;10.05;;
7841;SDS011;3966;51.052;13.820;2022-09-14T09:57:06;19.20;;;10.98;;
7841;SDS011;3966;51.052;13.820;2022-09-14T09:59:47;16.65;;;10.70;;
7841;SDS011;3966;51.052;13.820;2022-09-14T10:04:54;20.27;;;11.60;;
7841;SDS011;3966;51.052;13.820;2022-09-14T10:07:24;18.10;;;10.52;;
7841;SDS011;3966;51.052;13.820;2022-09-14T10:09:58;20.17;;;12.38;;
7841;SDS011;3966;51.052;13.820;2022-09-14T10:12:25;18.42;;;11.85;;
7841;SDS011;3966;51.052;13.820;2022-09-14T10:15:12;17.00;;;11.00;;
7841;SDS011;3966;51.052;13.820;2022-09-14T10:20:41;18.42;;;11.15;;
7841;SDS011;3966;51.052;13.820;2022-09-14T10:23:14;19.02;;;10.48;;
7841;SDS011;3966;51.052;13.820;2022-09-14T10:25:43;14.73;;;10.10;;
7841;SDS011;3966;51.052;13.820;2022-09-14T10:33:43;16.92;;;10.70;;
7841;SDS011;3966;51.052;13.820;2022-09-14T10:36:15;23.92;;;11.23;;
7841;SDS011;3966;51.052;13.820;2022-09-14T10:44:44;20.40;;;11.45;;
7841;SDS011;3966;51.052;13.820;2022-09-14T10:47:15;18.25;;;10.88;;
7841;SDS011;3966;51.052;13.820;2022-09-14T10:56:05;18.98;;;11.73;;
7841;SDS011;3966;51.052;13.820;2022-09-14T11:07:25;22.63;;;12.43;;
7841;SDS011;3966;51.052;13.820;2022-09-14T11:10:22;19.95;;;11.77;;
7841;SDS011;3966;51.052;13.820;2022-09-14T11:12:48;20.73;;;12.95;;
7841;SDS011;3966;51.052;13.820;2022-09-14T11:15:42;22.23;;;12.05;;
7841;SDS011;3966;51.052;13.820;2022-09-14T11:18:47;21.02;;;12.98;;
7841;SDS011;3966;51.052;13.820;2022-09-14T11:27:25;19.73;;;12.38;;
7841;SDS011;3966;51.052;13.820;2022-09-14T11:30:19;25.48;;;13.75;;
7841;SDS011;3966;51.052;13.820;2022-09-14T11:32:47;19.33;;;12.65;;
7841;SDS011;3966;51.052;13.820;2022-09-14T11:35:27;21.77;;;13.30;;
7841;SDS011;3966;51.052;13.820;2022-09-14T11:38:14;20.10;;;12.20;;
7841;SDS011;3966;51.052;13.820;2022-09-14T11:43:25;21.48;;;11.88;;
7841;SDS011;3966;51.052;13.820;2022-09-14T11:46:11;19.60;;;11.35;;
7841;SDS011;3966;51.052;13.820;2022-09-14T11:48:53;20.60;;;12.15;;
7841;SDS011;3966;51.052;13.820;2022-09-14T11:51:27;22.75;;;12.90;;
7841;SDS011;3966;51.052;13.820;2022-09-14T11:53:58;21.38;;;12.70;;
7841;SDS011;3966;51.052;13.820;2022-09-14T11:56:28;22.23;;;13.00;;
7841;SDS011;3966;51.052;13.820;2022-09-14T11:58:57;24.77;;;12.60;;
7841;SDS011;3966;51.052;13.820;2022-09-14T12:09:30;18.77;;;10.88;;
7841;SDS011;3966;51.052;13.820;2022-09-14T12:12:02;17.33;;;11.18;;
7841;SDS011;3966;51.052;13.820;2022-09-14T12:14:34;17.85;;;11.52;;
7841;SDS011;3966;51.052;13.820;2022-09-14T12:19:42;18.85;;;12.02;;
7841;SDS011;3966;51.052;13.820;2022-09-14T12:22:24;20.42;;;11.90;;
7841;SDS011;3966;51.052;13.820;2022-09-14T12:25:36;20.75;;;11.55;;
7841;SDS011;3966;51.052;13.820;2022-09-14T12:27:44;16.42;;;10.77;;
7841;SDS011;3966;51.052;13.820;2022-09-14T12:30:33;17.02;;;11.38;;
7841;SDS011;3966;51.052;13.820;2022-09-14T12:33:03;19.15;;;10.65;;
7841;SDS011;3966;51.052;13.820;2022-09-14T12:38:39;19.95;;;12.07;;
7841;SDS011;3966;51.052;13.820;2022-09-14T12:43:52;15.25;;;11.25;;
7841;SDS011;3966;51.052;13.820;2022-09-14T12:51:22;14.52;;;10.25;;
7841;SDS011;3966;51.052;13.820;2022-09-14T12:54:15;15.68;;;9.63;;
7841;SDS011;3966;51.052;13.820;2022-09-14T12:57:05;14.20;;;9.98;;
7841;SDS011;3966;51.052;13.820;2022-09-14T13:02:57;17.50;;;11.00;;
7841;SDS011;3966;51.052;13.820;2022-09-14T13:05:34;17.70;;;10.70;;
7841;SDS011;3966;51.052;13.820;2022-09-14T13:07:59;18.15;;;12.25;;
7841;SDS011;3966;51.052;13.820;2022-09-14T13:10:33;14.65;;;11.20;;
7841;SDS011;3966;51.052;13.820;2022-09-14T13:13:14;19.45;;;12.20;;
7841;SDS011;3966;51.052;13.820;2022-09-14T13:15:50;16.77;;;11.65;;
7841;SDS011;3966;51.052;13.820;2022-09-14T13:20:50;20.00;;;12.45;;
7841;SDS011;3966;51.052;13.820;2022-09-14T13:23:20;18.40;;;11.77;;
7841;SDS011;3966;51.052;13.820;2022-09-14T13:25:47;16.42;;;11.52;;
7841;SDS011;3966;51.052;13.820;2022-09-14T13:28:14;20.20;;;12.73;;
7841;SDS011;3966;51.052;13.820;2022-09-14T13:30:42;20.35;;;12.75;;
7841;SDS011;3966;51.052;13.820;2022-09-14T13:33:21;18.45;;;11.73;;
7841;SDS011;3966;51.052;13.820;2022-09-14T13:35:57;16.50;;;11.57;;
7841;SDS011;3966;51.052;13.820;2022-09-14T13:38:33;16.38;;;12.00;;
7841;SDS011;3966;51.052;13.820;2022-09-14T13:41:02;19.98;;;12.05;;
7841;SDS011;3966;51.052;13.820;2022-09-14T13:43:36;19.42;;;13.05;;
7841;SDS011;3966;51.052;13.820;2022-09-14T13:46:03;15.13;;;11.30;;
7841;SDS011;3966;51.052;13.820;2022-09-14T13:48:31;15.70;;;10.32;;
7841;SDS011;3966;51.052;13.820;2022-09-14T13:50:57;15.23;;;10.52;;
7841;SDS011;3966;51.052;13.820;2022-09-14T13:53:37;18.80;;;11.23;;
7841;SDS011;3966;51.052;13.820;2022-09-14T13:58:41;16.08;;;11.82;;
7841;SDS011;3966;51.052;13.820;2022-09-14T14:01:07;18.23;;;11.23;;
7841;SDS011;3966;51.052;13.820;2022-09-14T14:03:37;17.13;;;12.32;;
7841;SDS011;3966;51.052;13.820;2022-09-14T14:06:30;14.85;;;11.00;;
7841;SDS011;3966;51.052;13.820;2022-09-14T14:08:59;17.65;;;10.93;;
7841;SDS011;3966;51.052;13.820;2022-09-14T14:11:51;18.75;;;12.13;;
7841;SDS011;3966;51.052;13.820;2022-09-14T14:14:19;17.70;;;11.38;;
7841;SDS011;3966;51.052;13.820;2022-09-14T14:19:52;16.75;;;11.38;;
7841;SDS011;3966;51.052;13.820;2022-09-14T14:22:27;19.00;;;11.80;;
7841;SDS011;3966;51.052;13.820;2022-09-14T14:24:55;21.10;;;13.25;;
7841;SDS011;3966;51.052;13.820;2022-09-14T14:27:30;19.80;;;13.35;;
7841;SDS011;3966;51.052;13.820;2022-09-14T14:29:59;20.00;;;11.98;;
7841;SDS011;3966;51.052;13.820;2022-09-14T14:32:26;18.33;;;12.77;;
7841;SDS011;3966;51.052;13.820;2022-09-14T14:34:52;19.63;;;12.35;;
7841;SDS011;3966;51.052;13.820;2022-09-14T14:37:19;16.65;;;12.20;;
7841;SDS011;3966;51.052;13.820;2022-09-14T14:39:45;24.15;;;13.73;;
7841;SDS011;3966;51.052;13.820;2022-09-14T14:42:12;16.85;;;12.73;;
7841;SDS011;3966;51.052;13.820;2022-09-14T14:44:39;16.23;;;12.13;;
7841;SDS011;3966;51.052;13.820;2022-09-14T14:47:06;18.77;;;12.60;;
7841;SDS011;3966;51.052;13.820;2022-09-14T14:49:31;18.42;;;12.23;;
7841;SDS011;3966;51.052;13.820;2022-09-14T14:51:57;15.82;;;12.25;;
7841;SDS011;3966;51.052;13.820;2022-09-14T14:54:22;18.92;;;12.55;;
7841;SDS011;3966;51.052;13.820;2022-09-14T14:56:48;17.10;;;12.18;;
7841;SDS011;3966;51.052;13.820;2022-09-14T15:01:50;19.05;;;13.05;;
7841;SDS011;3966;51.052;13.820;2022-09-14T15:04:16;21.05;;;12.95;;
7841;SDS011;3966;51.052;13.820;2022-09-14T15:06:43;18.52;;;13.55;;
7841;SDS011;3966;51.052;13.820;2022-09-14T15:09:13;21.98;;;14.00;;
7841;SDS011;3966;51.052;13.820;2022-09-14T15:11:44;18.80;;;13.75;;
7841;SDS011;3966;51.052;13.820;2022-09-14T15:14:10;21.10;;;13.88;;
7841;SDS011;3966;51.052;13.820;2022-09-14T15:16:38;19.02;;;13.13;;
7841;SDS011;3966;51.052;13.820;2022-09-14T15:19:03;19.70;;;13.02;;
7841;SDS011;3966;51.052;13.820;2022-09-14T15:21:29;23.65;;;14.63;;
7841;SDS011;3966;51.052;13.820;2022-09-14T15:23:55;19.67;;;13.68;;
7841;SDS011;3966;51.052;13.820;2022-09-14T15:26:22;19.77;;;12.70;;
7841;SDS011;3966;51.052;13.820;2022-09-14T15:28:48;19.55;;;12.65;;
7841;SDS011;3966;51.052;13.820;2022-09-14T15:31:14;17.30;;;12.85;;
7841;SDS011;3966;51.052;13.820;2022-09-14T15:33:40;21.77;;;12.90;;
7841;SDS011;3966;51.052;13.820;2022-09-14T15:36:05;15.73;;;11.82;;
7841;SDS011;3966;51.052;13.820;2022-09-14T15:38:31;17.63;;;12.23;;
7841;SDS011;3966;51.052;13.820;2022-09-14T15:40:56;23.90;;;13.40;;
7841;SDS011;3966;51.052;13.820;2022-09-14T15:43:21;20.73;;;13.63;;
7841;SDS011;3966;51.052;13.820;2022-09-14T15:45:47;17.58;;;12.93;;
7841;SDS011;3966;51.052;13.820;2022-09-14T15:48:13;21.23;;;14.32;;
7841;SDS011;3966;51.052;13.820;2022-09-14T15:50:41;18.55;;;13.32;;
7841;SDS011;3966;51.052;13.820;2022-09-14T15:53:08;20.38;;;13.10;;
7841;SDS011;3966;51.052;13.820;2022-09-14T15:55:41;17.92;;;11.85;;
7841;SDS011;3966;51.052;13.820;2022-09-14T15:58:08;20.70;;;13.75;;
7841;SDS011;3966;51.052;13.820;2022-09-14T16:00:34;18.52;;;12.30;;
7841;SDS011;3966;51.052;13.820;2022-09-14T16:03:01;22.25;;;13.30;;
7841;SDS011;3966;51.052;13.820;2022-09-14T16:05:27;18.92;;;13.00;;
7841;SDS011;3966;51.052;13.820;2022-09-14T16:07:54;18.42;;;12.15;;
7841;SDS011;3966;51.052;13.820;2022-09-14T16:10:20;21.20;;;14.50;;
7841;SDS011;3966;51.052;13.820;2022-09-14T16:12:46;22.83;;;13.95;;
7841;SDS011;3966;51.052;13.820;2022-09-14T16:15:12;19.42;;;13.40;;
7841;SDS011;3966;51.052;13.820;2022-09-14T16:17:37;21.35;;;13.43;;
7841;SDS011;3966;51.052;13.820;2022-09-14T16:20:03;22.17;;;14.50;;
7841;SDS011;3966;51.052;13.820;2022-09-14T16:22:30;20.90;;;13.80;;
7841;SDS011;3966;51.052;13.820;2022-09-14T16:24:56;20.92;;;14.45;;
7841;SDS011;3966;51.052;13.820;2022-09-14T16:27:21;26.90;;;15.70;;
7841;SDS011;3966;51.052;13.820;2022-09-14T16:29:47;20.33;;;14.02;;
7841;SDS011;3966;51.052;13.820;2022-09-14T16:32:13;26.70;;;15.18;;
7841;SDS011;3966;51.052;13.820;2022-09-14T16:34:38;21.00;;;14.43;;
7841;SDS011;3966;51.052;13.820;2022-09-14T16:37:04;23.40;;;15.00;;
7841;SDS011;3966;51.052;13.820;2022-09-14T16:39:29;25.90;;;14.75;;
7841;SDS011;3966;51.052;13.820;2022-09-14T16:41:55;21.25;;;14.00;;
7841;SDS011;3966;51.052;13.820;2022-09-14T16:44:22;22.75;;;14.15;;